Velkommen til min vejrside, der er mangler og fejl som bliver opdateret. Kom snart tilbage og få vejret - Welcome to our website - Welkom op onze vernieuwde website
Bienvenue sur notre site web - Willkommen auf unserer Website - Check our progress frequently. Prüfen Sie unsere Fortschritte regelmäßig. Consultez notre progression fréquemment. Komt u straks nog eens terug


vejr3>nv more information Vejr3>NV


3 timers nedbørs radar more information rain snow radar


besøg nogle andre vejrsider:

Template dokumentation
og downloads

And another site


weather underground historie, tekst side

dagens sammenfatning af februar 10, 2018 enheder:  metrisk    engelsk   både
« forgående dag
næste dag »
dagens ugenligt månedlig årligt tilpasset
  høj: lav: gennemsnit:
temperatur: -17.8 °C -20.1 °C -18.6 °C
dugpunkt: -17.8 °C -20.8 °C -19.7 °C
fugtighed: Humidity % 71 % 86 %
vindhastighed: 0 km/h 3.1 km/h 17.2 km/h
vindstød: 0 km/h - -
vind:- - SE
lufttryk: 0 hPa 34120.7 hPa -
nedbør: 0 mm    
Historical Graphs
 
 
tabeldata for februar 10, 2018
tid temperatur dugpunkt lufttryk vind vindhastighed vindstød fugtighed regn (timme)
-17.8 °C -17.8 °C 0 hPa Calm     Humidity % 0 mm
00:00 -19.6 °C -20.5 °C 34384.8 hPa ESE 9 km/h 9 km/h 89 % 0 mm
00:05 -19.6 °C -20.4 °C 34384.8 hPa ESE 6 km/h 6 km/h 89 % 0 mm
00:10 -19.6 °C -20.4 °C 34384.8 hPa ESE 10.3 km/h 10.3 km/h 89 % 0 mm
00:15 -19.6 °C -20.4 °C 34384.8 hPa ESE 9 km/h 9 km/h 89 % 0 mm
00:20 -19.6 °C -20.4 °C 34384.8 hPa ESE 12.9 km/h 18.2 km/h 89 % 0 mm
00:25 -19.5 °C -20.4 °C 34371.3 hPa ESE 15 km/h 15 km/h 89 % 0 mm
00:30 -19.5 °C -20.3 °C 34371.3 hPa ESE 12.9 km/h 15.6 km/h 89 % 0 mm
00:35 -19.4 °C -20.3 °C 34384.8 hPa East 15.6 km/h 15.6 km/h 89 % 0 mm
00:40 -19.4 °C -20.3 °C 34384.8 hPa ESE 12.9 km/h 25.9 km/h 89 % 0 mm
00:45 -19.4 °C -20.2 °C 34384.8 hPa ESE 15.6 km/h 15.6 km/h 89 % 0 mm
00:50 -19.3 °C -20.2 °C 34384.8 hPa ESE 15.6 km/h 20.8 km/h 89 % 0 mm
00:55 -19.3 °C -20.2 °C 34384.8 hPa East 23.8 km/h 23.8 km/h 89 % 0 mm
01:00 -19.2 °C -20.1 °C 34371.3 hPa SE 18.2 km/h 19.2 km/h 89 % 0 mm
01:05 -19.1 °C -20.1 °C 34371.3 hPa ESE 26.9 km/h 26.9 km/h 88 % 0 mm
01:10 -19.1 °C -20.1 °C 34371.3 hPa ESE 12.9 km/h 18.2 km/h 88 % 0 mm
01:15 -19.1 °C -20 °C 34371.3 hPa ESE 32.8 km/h 32.8 km/h 88 % 0 mm
01:20 -19 °C -19.9 °C 34371.3 hPa ESE 15.6 km/h 31.1 km/h 88 % 0 mm
01:25 -18.9 °C -19.9 °C 34371.3 hPa SE 15.6 km/h 15.6 km/h 87 % 0 mm
01:30 -18.8 °C -19.9 °C 34371.3 hPa ESE 12.9 km/h 23.3 km/h 87 % 0 mm
01:35 -18.8 °C -19.9 °C 34371.3 hPa ESE 15.6 km/h 17.4 km/h 87 % 0 mm
01:40 -18.8 °C -19.9 °C 34371.3 hPa ESE 15 km/h 15 km/h 87 % 0 mm
01:45 -18.9 °C -19.9 °C 34371.3 hPa ESE 15 km/h 15 km/h 87 % 0 mm
01:50 -18.9 °C -19.9 °C 34371.3 hPa ESE 15.6 km/h 23.3 km/h 87 % 0 mm
01:55 -18.9 °C -19.9 °C 34371.3 hPa ESE 17.9 km/h 17.9 km/h 87 % 0 mm
02:00 -19 °C -20.1 °C 34371.3 hPa ESE 11.9 km/h 11.9 km/h 87 % 0 mm
02:05 -19 °C -20.1 °C 34371.3 hPa ESE 15.6 km/h 15.6 km/h 87 % 0 mm
02:10 -19.1 °C -20.1 °C 34371.3 hPa ESE 7.7 km/h 18.2 km/h 87 % 0 mm
02:15 -19.1 °C -20.1 °C 34371.3 hPa ESE 10.3 km/h 11.1 km/h 87 % 0 mm
02:20 -19.1 °C -20.2 °C 34371.3 hPa East 15.6 km/h 15.6 km/h 87 % 0 mm
02:25 -19.2 °C -20.1 °C 34371.3 hPa ESE 11.9 km/h 11.9 km/h 88 % 0 mm
02:30 -19.2 °C -20.2 °C 34371.3 hPa ESE 11.9 km/h 11.9 km/h 88 % 0 mm
02:35 -19.3 °C -20.2 °C 34371.3 hPa ESE 11.9 km/h 11.9 km/h 88 % 0 mm
02:40 -19.3 °C -20.2 °C 34371.3 hPa ESE 9 km/h 9 km/h 88 % 0 mm
02:45 -19.3 °C -20.3 °C 34361.1 hPa ESE 10.3 km/h 10.3 km/h 88 % 0 mm
02:50 -19.4 °C -20.3 °C 34361.1 hPa ESE 9 km/h 9 km/h 89 % 0 mm
02:55 -19.4 °C -20.3 °C 34361.1 hPa ESE 15 km/h 15 km/h 89 % 0 mm
03:00 -19.4 °C -20.2 °C 34361.1 hPa ESE 15 km/h 15 km/h 90 % 0 mm
03:05 -19.4 °C -20.2 °C 34361.1 hPa ESE 17.9 km/h 17.9 km/h 90 % 0 mm
03:10 -19.3 °C -20 °C 34361.1 hPa ESE 17.9 km/h 17.9 km/h 91 % 0 mm
03:15 -19.2 °C -19.9 °C 34361.1 hPa ESE 15.6 km/h 15.6 km/h 90 % 0 mm
03:20 -19.1 °C -19.9 °C 34361.1 hPa ESE 18.2 km/h 18.2 km/h 90 % 0 mm
03:25 -19.1 °C -19.8 °C 34361.1 hPa ESE 11.9 km/h 11.9 km/h 90 % 0 mm
03:30 -19 °C -19.9 °C 34361.1 hPa SE 10.3 km/h 10.3 km/h 89 % 0 mm
03:35 -19 °C -19.8 °C 34361.1 hPa ESE 23.3 km/h 23.3 km/h 89 % 0 mm
03:40 -18.9 °C -19.8 °C 34361.1 hPa SE 17.9 km/h 17.9 km/h 89 % 0 mm
03:45 -18.9 °C -19.8 °C 34361.1 hPa ESE 25.9 km/h 25.9 km/h 89 % 0 mm
03:50 -18.8 °C -19.8 °C 34361.1 hPa ESE 15 km/h 15 km/h 88 % 0 mm
03:55 -18.8 °C -19.8 °C 34347.6 hPa SE 12.9 km/h 12.9 km/h 88 % 0 mm
04:00 -18.8 °C -19.7 °C 34347.6 hPa SE 17.9 km/h 17.9 km/h 88 % 0 mm
04:05 -18.7 °C -19.8 °C 34347.6 hPa ESE 29.8 km/h 29.8 km/h 87 % 0 mm
04:10 -18.7 °C -19.8 °C 34347.6 hPa East 10.3 km/h 10.3 km/h 87 % 0 mm
04:15 -18.7 °C -19.8 °C 34347.6 hPa SE 10.3 km/h 10.3 km/h 87 % 0 mm
04:20 -18.7 °C -19.8 °C 34347.6 hPa ESE 11.9 km/h 11.9 km/h 87 % 0 mm
04:25 -18.8 °C -19.8 °C 34347.6 hPa ESE 29.8 km/h 29.8 km/h 87 % 0 mm
04:30 -18.8 °C -19.8 °C 34361.1 hPa SE 11.9 km/h 11.9 km/h 87 % 0 mm
04:35 -18.8 °C -20 °C 34347.6 hPa ESE 9 km/h 9 km/h 86 % 0 mm
04:40 -18.9 °C -20.1 °C 34361.1 hPa ESE 9 km/h 9 km/h 86 % 0 mm
04:45 -19 °C -20.1 °C 34361.1 hPa ESE 6 km/h 6 km/h 86 % 0 mm
04:50 -19.1 °C -20.2 °C 34361.1 hPa East 6 km/h 6 km/h 86 % 0 mm
04:55 -19.1 °C -20.2 °C 34361.1 hPa East 3.1 km/h 3.1 km/h 87 % 0 mm
05:00 -19.2 °C -20.2 °C 34361.1 hPa East 9 km/h 9 km/h 87 % 0 mm
05:05 -19.3 °C -20.3 °C 34361.1 hPa ESE 3.1 km/h 3.1 km/h 87 % 0 mm
05:10 -19.4 °C -20.4 °C 34361.1 hPa East 3.1 km/h 3.1 km/h 87 % 0 mm
05:15 -19.5 °C -20.5 °C 34361.1 hPa East 3.1 km/h 3.1 km/h 87 % 0 mm
05:20 -19.6 °C -20.5 °C 34361.1 hPa East 7.7 km/h 7.7 km/h 88 % 0 mm
05:25 -19.7 °C -20.6 °C 34361.1 hPa East 10.3 km/h 10.3 km/h 88 % 0 mm
05:30 -19.7 °C -20.6 °C 34361.1 hPa East 9 km/h 9 km/h 89 % 0 mm
05:35 -19.8 °C -20.7 °C 34347.6 hPa East 10.3 km/h 10.3 km/h 89 % 0 mm
05:40 -19.9 °C -20.7 °C 34347.6 hPa East 10.3 km/h 10.3 km/h 89 % 0 mm
05:45 -19.9 °C -20.7 °C 34347.6 hPa East 10.3 km/h 10.3 km/h 90 % 0 mm
05:50 -19.9 °C -20.7 °C 34347.6 hPa East 10.3 km/h 10.3 km/h 90 % 0 mm
05:55 -20 °C -20.8 °C 34347.6 hPa East 9 km/h 9 km/h 90 % 0 mm
06:00 -20.1 °C -20.7 °C 34347.6 hPa East 10.3 km/h 10.3 km/h 91 % 0 mm
06:05 -20.1 °C -20.8 °C 34347.6 hPa East 9 km/h 9.3 km/h 91 % 0 mm
06:10 -20.1 °C -20.8 °C 34347.6 hPa ESE 15.6 km/h 15.6 km/h 91 % 0 mm
06:15 -20.1 °C -20.7 °C 34347.6 hPa East 15 km/h 15 km/h 92 % 0 mm
06:20 -20.1 °C -20.7 °C 34347.6 hPa East 15 km/h 15 km/h 92 % 0 mm
06:25 -20.1 °C -20.7 °C 34347.6 hPa East 11.9 km/h 11.9 km/h 92 % 0 mm
06:30 -20.1 °C -20.7 °C 34347.6 hPa East 11.9 km/h 11.9 km/h 92 % 0 mm
06:35 -20.1 °C -20.7 °C 34347.6 hPa East 11.9 km/h 11.9 km/h 92 % 0 mm
06:40 -20.1 °C -20.7 °C 34361.1 hPa ESE 11.9 km/h 11.9 km/h 92 % 0 mm
06:45 -20.1 °C -20.6 °C 34361.1 hPa ESE 9 km/h 9 km/h 93 % 0 mm
06:50 -20 °C -20.5 °C 34361.1 hPa ESE 10.3 km/h 10.3 km/h 93 % 0 mm
06:55 -19.9 °C -20.5 °C 34361.1 hPa ESE 9 km/h 9 km/h 93 % 0 mm
07:00 -19.9 °C -20.4 °C 34361.1 hPa SE 11.9 km/h 11.9 km/h 93 % 0 mm
07:05 -19.9 °C -20.4 °C 34347.6 hPa East 15.6 km/h 15.6 km/h 93 % 0 mm
07:10 -19.8 °C -20.4 °C 34361.1 hPa ESE 11.9 km/h 11.9 km/h 93 % 0 mm
07:15 -19.8 °C -20.3 °C 34347.6 hPa ESE 11.9 km/h 11.9 km/h 93 % 0 mm
07:20 -19.7 °C -20.2 °C 34361.1 hPa SE 9 km/h 9 km/h 93 % 0 mm
07:25 -19.7 °C -20.2 °C 34361.1 hPa ESE 9 km/h 9 km/h 93 % 0 mm
07:30 -19.6 °C -20.1 °C 34361.1 hPa ESE 9 km/h 9 km/h 93 % 0 mm
07:35 -19.6 °C -20.1 °C 34361.1 hPa ESE 9 km/h 9 km/h 93 % 0 mm
07:40 -19.4 °C -20 °C 34361.1 hPa ESE 10.3 km/h 10.3 km/h 93 % 0 mm
07:45 -19.4 °C -19.9 °C 34361.1 hPa ESE 15.6 km/h 15.6 km/h 93 % 0 mm
07:50 -19.3 °C -19.8 °C 34361.1 hPa SE 11.9 km/h 11.9 km/h 93 % 0 mm
07:55 -19.2 °C -19.8 °C 34347.6 hPa SE 15 km/h 15 km/h 92 % 0 mm
08:00 -19.1 °C -19.8 °C 34347.6 hPa ESE 23.8 km/h 23.8 km/h 92 % 0 mm
08:01 -19.1 °C -19.8 °C 34347.6 hPa ESE 20.9 km/h 20.9 km/h 91 % 0 mm
08:06 -19.1 °C -19.8 °C 34361.1 hPa ESE 18.2 km/h 18.2 km/h 91 % 0 mm
08:11 -19 °C -19.8 °C 34361.1 hPa ESE 10.3 km/h 10.3 km/h 90 % 0 mm
08:16 -19 °C -19.8 °C 34347.6 hPa ESE 12.9 km/h 12.9 km/h 90 % 0 mm
08:21 -18.9 °C -19.7 °C 34347.6 hPa SE 17.9 km/h 17.9 km/h 90 % 0 mm
08:26 -18.9 °C -19.7 °C 34347.6 hPa SE 15 km/h 15 km/h 90 % 0 mm
08:31 -18.8 °C -19.7 °C 34347.6 hPa ESE 15.6 km/h 15.6 km/h 90 % 0 mm
08:36 -18.8 °C -19.7 °C 34347.6 hPa ESE 15 km/h 15 km/h 89 % 0 mm
08:41 -18.8 °C -19.7 °C 34347.6 hPa SE 15 km/h 15 km/h 89 % 0 mm
08:46 -18.7 °C -19.6 °C 34347.6 hPa SE 11.9 km/h 11.9 km/h 89 % 0 mm
08:51 -18.7 °C -19.6 °C 34347.6 hPa SE 15 km/h 15 km/h 89 % 0 mm
08:56 -18.7 °C -19.5 °C 34361.1 hPa SE 10.3 km/h 10.3 km/h 89 % 0 mm
09:01 -18.7 °C -19.5 °C 34361.1 hPa SE 9 km/h 9 km/h 89 % 0 mm
09:02 -18.6 °C -19.4 °C 34361.1 hPa SE 11.9 km/h 11.9 km/h 90 % 0 mm
09:07 -18.6 °C -19.4 °C 34361.1 hPa ESE 15 km/h 15 km/h 90 % 0 mm
09:12 -18.5 °C -19.3 °C 34347.6 hPa SE 18.2 km/h 18.2 km/h 90 % 0 mm
09:17 -18.5 °C -19.3 °C 34347.6 hPa SE 17.9 km/h 17.9 km/h 90 % 0 mm
09:22 -18.4 °C -19.3 °C 34347.6 hPa SE 11.9 km/h 11.9 km/h 90 % 0 mm
09:27 -18.4 °C -19.2 °C 34347.6 hPa SE 15 km/h 15 km/h 90 % 0 mm
09:33 -18.4 °C -19.2 °C 34347.6 hPa ESE 12.9 km/h 15.6 km/h 90 % 0 mm
09:38 -18.3 °C -19.1 °C 34347.6 hPa SE 15.6 km/h 23.3 km/h 90 % 0 mm
09:43 -18.3 °C -19.1 °C 34337.4 hPa SE 29.8 km/h 29.8 km/h 90 % 0 mm
09:48 -18.2 °C -19.1 °C 34337.4 hPa SE 29.8 km/h 29.8 km/h 89 % 0 mm
09:53 -18.2 °C -19.1 °C 34337.4 hPa SE 26.9 km/h 26.9 km/h 88 % 0 mm
09:58 -18.1 °C -19.1 °C 34337.4 hPa SE 26.9 km/h 26.9 km/h 87 % 0 mm
10:03 -18.1 °C -19.2 °C 34337.4 hPa SSE 31.1 km/h 31.1 km/h 86 % 0 mm
10:08 -18 °C -19.3 °C 34337.4 hPa ESE 32.8 km/h 32.8 km/h 85 % 0 mm
10:13 -18 °C -19.3 °C 34337.4 hPa SE 41.7 km/h 41.7 km/h 84 % 0 mm
10:18 -17.9 °C -19.3 °C 34337.4 hPa ESE 38.8 km/h 38.8 km/h 83 % 0 mm
10:23 -17.9 °C -19.2 °C 34337.4 hPa SE 23.8 km/h 23.8 km/h 84 % 0 mm
10:28 -17.8 °C -19.3 °C 34337.4 hPa SE 23.8 km/h 23.8 km/h 83 % 0 mm
10:33 -17.8 °C -19.3 °C 34337.4 hPa SE 38.8 km/h 38.8 km/h 82 % 0 mm
10:38 -17.7 °C -19.3 °C 34327.3 hPa ESE 32.8 km/h 32.8 km/h 81 % 0 mm
10:43 -17.7 °C -19.4 °C 34327.3 hPa SE 44.7 km/h 44.7 km/h 80 % 0 mm
10:48 -17.6 °C -19.3 °C 34327.3 hPa SE 47.6 km/h 47.6 km/h 80 % 0 mm
10:53 -17.6 °C -19.2 °C 34327.3 hPa East 15 km/h 15 km/h 80 % 0 mm
10:58 -17.4 °C -19.1 °C 34337.4 hPa SSE 18.2 km/h 18.2 km/h 80 % 0 mm
11:03 -17.3 °C -19.1 °C 34337.4 hPa SE 26.9 km/h 26.9 km/h 79 % 0 mm
11:08 -17.2 °C -19.1 °C 34337.4 hPa SE 23.8 km/h 23.8 km/h 78 % 0 mm
11:13 -17.1 °C -19 °C 34337.4 hPa SE 26.9 km/h 26.9 km/h 78 % 0 mm
11:18 -17.1 °C -18.9 °C 34337.4 hPa SSE 23.3 km/h 23.3 km/h 78 % 0 mm
11:23 -17.1 °C -19.1 °C 34337.4 hPa SSE 29.8 km/h 29.8 km/h 77 % 0 mm
11:28 -17.1 °C -18.9 °C 34337.4 hPa SE 26.9 km/h 26.9 km/h 78 % 0 mm
11:33 -17.1 °C -18.9 °C 34337.4 hPa ESE 32.8 km/h 32.8 km/h 78 % 0 mm
11:38 -17.1 °C -18.8 °C 34337.4 hPa SE 15 km/h 15 km/h 79 % 0 mm
11:43 -17 °C -18.8 °C 34337.4 hPa SE 29.8 km/h 29.8 km/h 79 % 0 mm
11:48 -16.9 °C -18.7 °C 34337.4 hPa South 9 km/h 9 km/h 79 % 0 mm
11:53 -16.9 °C -18.8 °C 34337.4 hPa South 29.8 km/h 29.8 km/h 78 % 0 mm
11:58 -16.9 °C -18.9 °C 34337.4 hPa SSE 26.9 km/h 26.9 km/h 77 % 0 mm
12:03 -16.9 °C -18.9 °C 34327.3 hPa SSE 23.8 km/h 23.8 km/h 77 % 0 mm
12:08 -17 °C -19 °C 34327.3 hPa SSE 23.8 km/h 23.8 km/h 77 % 0 mm
12:13 -17 °C -19 °C 34337.4 hPa SSE 33.6 km/h 33.6 km/h 77 % 0 mm
12:18 -17 °C -19.2 °C 34327.3 hPa SE 28.5 km/h 28.5 km/h 75 % 0 mm
12:23 -17.1 °C -19.2 °C 34327.3 hPa South 32.8 km/h 32.8 km/h 76 % 0 mm
12:28 -17.1 °C -19.1 °C 34327.3 hPa South 23.3 km/h 23.3 km/h 77 % 0 mm
12:33 -17.2 °C -19.1 °C 34327.3 hPa SSE 17.9 km/h 17.9 km/h 78 % 0 mm
12:38 -17.2 °C -19.1 °C 34327.3 hPa SSE 26.9 km/h 26.9 km/h 78 % 0 mm
12:43 -17.1 °C -19.1 °C 34327.3 hPa SSE 28.5 km/h 28.5 km/h 77 % 0 mm
12:48 -17.1 °C -19.1 °C 34327.3 hPa SE 31.1 km/h 31.1 km/h 77 % 0 mm
12:53 -16.9 °C -19.1 °C 34313.7 hPa SSE 29.8 km/h 29.8 km/h 75 % 0 mm
12:58 -16.8 °C -19.1 °C 34313.7 hPa South 26.9 km/h 26.9 km/h 75 % 0 mm
13:03 -16.8 °C -19.1 °C 34313.7 hPa SSE 10.3 km/h 10.3 km/h 74 % 0 mm
13:08 -16.7 °C -19.1 °C 34313.7 hPa SE 17.9 km/h 17.9 km/h 73 % 0 mm
13:13 -16.7 °C -19.2 °C 34303.6 hPa SE 9 km/h 9 km/h 72 % 0 mm
13:18 -16.7 °C -19.1 °C 34303.6 hPa SSE 9 km/h 9 km/h 73 % 0 mm
13:23 -16.6 °C -19.1 °C 34303.6 hPa SE 18.2 km/h 18.2 km/h 72 % 0 mm
13:28 -16.6 °C -19.3 °C 34303.6 hPa SE 35.7 km/h 35.7 km/h 71 % 0 mm
13:33 -16.7 °C -19.3 °C 34303.6 hPa SSE 17.9 km/h 17.9 km/h 71 % 0 mm
13:38 -16.7 °C -19.3 °C 34303.6 hPa SSE 23.8 km/h 23.8 km/h 71 % 0 mm
13:43 -16.8 °C -19.4 °C 34303.6 hPa SE 15 km/h 15 km/h 71 % 0 mm
13:48 -17 °C -19.5 °C 34303.6 hPa SSE 12.9 km/h 12.9 km/h 72 % 0 mm
13:53 -17.1 °C -19.4 °C 34303.6 hPa South 29.8 km/h 29.8 km/h 73 % 0 mm
13:58 -17.1 °C -19.3 °C 34303.6 hPa South 15 km/h 15 km/h 74 % 0 mm
14:03 -17.1 °C -19.3 °C 34303.6 hPa SE 6 km/h 6 km/h 75 % 0 mm
14:08 -17.1 °C -19.3 °C 34293.4 hPa SE 29.8 km/h 29.8 km/h 75 % 0 mm
14:13 -17.1 °C -19.3 °C 34293.4 hPa SE 23.8 km/h 23.8 km/h 75 % 0 mm
14:18 -17.1 °C -19.2 °C 34293.4 hPa SE 18.2 km/h 18.2 km/h 76 % 0 mm
14:23 -17.1 °C -19.2 °C 34279.9 hPa SE 15 km/h 15 km/h 76 % 0 mm
14:28 -17.1 °C -19.2 °C 34279.9 hPa ESE 17.9 km/h 17.9 km/h 76 % 0 mm
14:33 -17.1 °C -19.3 °C 34279.9 hPa SE 26.9 km/h 26.9 km/h 75 % 0 mm
14:38 -17.1 °C -19.3 °C 34293.4 hPa SE 15.6 km/h 15.6 km/h 75 % 0 mm
14:43 -17.1 °C -19.3 °C 34293.4 hPa SE 15.6 km/h 15.6 km/h 75 % 0 mm
14:48 -17.2 °C -19.3 °C 34293.4 hPa South 6 km/h 6 km/h 75 % 0 mm
14:53 -17.2 °C -19.4 °C 34279.9 hPa ESE 26.9 km/h 26.9 km/h 75 % 0 mm
14:58 -17.2 °C -19.3 °C 34279.9 hPa SSE 23.3 km/h 23.3 km/h 76 % 0 mm
15:03 -17.2 °C -19.2 °C 34279.9 hPa SSE 11.9 km/h 11.9 km/h 77 % 0 mm
15:08 -17.1 °C -19.1 °C 34269.7 hPa SE 20.9 km/h 20.9 km/h 77 % 0 mm
15:13 -17.1 °C -19.2 °C 34269.7 hPa SE 11.9 km/h 11.9 km/h 76 % 0 mm
15:18 -17.1 °C -19.2 °C 34269.7 hPa SSE 9 km/h 9 km/h 76 % 0 mm
15:23 -17.2 °C -19.4 °C 34269.7 hPa SE 11.9 km/h 11.9 km/h 75 % 0 mm
15:28 -17.2 °C -19.3 °C 34269.7 hPa ESE 11.9 km/h 11.9 km/h 76 % 0 mm
15:33 -17.3 °C -19.3 °C 34269.7 hPa SSE 23.8 km/h 23.8 km/h 76 % 0 mm
15:38 -17.3 °C -19.4 °C 34269.7 hPa SE 17.9 km/h 17.9 km/h 76 % 0 mm
15:43 -17.3 °C -19.4 °C 34269.7 hPa SE 6 km/h 6 km/h 76 % 0 mm
15:48 -17.3 °C -19.3 °C 34269.7 hPa SE 18.2 km/h 18.2 km/h 77 % 0 mm
15:53 -17.3 °C -19.3 °C 34269.7 hPa SSE 15 km/h 15 km/h 77 % 0 mm
15:58 -17.3 °C -19.3 °C 34256.2 hPa SSE 9 km/h 9 km/h 77 % 0 mm
16:03 -17.3 °C -19.3 °C 34256.2 hPa SE 17.9 km/h 17.9 km/h 77 % 0 mm
16:08 -17.4 °C -19.3 °C 34256.2 hPa SE 9 km/h 9 km/h 77 % 0 mm
16:13 -17.4 °C -19.3 °C 34256.2 hPa ESE 17.9 km/h 17.9 km/h 78 % 0 mm
16:18 -17.4 °C -19.2 °C 34256.2 hPa SSE 18.2 km/h 18.2 km/h 79 % 0 mm
16:23 -17.4 °C -19.1 °C 34256.2 hPa SE 6 km/h 6 km/h 80 % 0 mm
16:28 -17.4 °C -19.1 °C 34256.2 hPa East 17.9 km/h 17.9 km/h 80 % 0 mm
16:33 -17.4 °C -19.1 °C 34256.2 hPa SE 17.9 km/h 17.9 km/h 81 % 0 mm
16:38 -17.4 °C -19.1 °C 34256.2 hPa SE 12.9 km/h 12.9 km/h 81 % 0 mm
16:43 -17.6 °C -19.1 °C 34256.2 hPa SE 6 km/h 6 km/h 81 % 0 mm
16:48 -17.6 °C -19.1 °C 34256.2 hPa SE 9 km/h 9 km/h 82 % 0 mm
16:53 -17.7 °C -19.3 °C 34256.2 hPa ESE 9 km/h 9 km/h 82 % 0 mm
16:58 -17.8 °C -19.2 °C 34246 hPa ESE 9 km/h 9 km/h 83 % 0 mm
17:03 -17.9 °C -19.2 °C 34246 hPa ESE 6 km/h 6 km/h 84 % 0 mm
17:08 -17.9 °C -19.2 °C 34246 hPa ESE 7.7 km/h 7.7 km/h 85 % 0 mm
17:13 -18 °C -19.2 °C 34246 hPa ESE 6 km/h 6 km/h 85 % 0 mm
17:18 -18.1 °C -19.2 °C 34246 hPa ESE 9 km/h 9 km/h 86 % 0 mm
17:23 -18.2 °C -19.3 °C 34246 hPa SE 6 km/h 6 km/h 86 % 0 mm
17:28 -18.2 °C -19.3 °C 34246 hPa SE 9 km/h 9 km/h 87 % 0 mm
17:33 -18.3 °C -19.3 °C 34246 hPa ESE 9 km/h 9 km/h 87 % 0 mm
17:38 -18.4 °C -19.3 °C 34246 hPa SE 6 km/h 6 km/h 88 % 0 mm
17:43 -18.4 °C -19.4 °C 34246 hPa East 11.9 km/h 11.9 km/h 88 % 0 mm
17:48 -18.4 °C -19.4 °C 34235.8 hPa SE 6 km/h 6 km/h 88 % 0 mm
17:53 -18.5 °C -19.3 °C 34235.8 hPa ESE 6 km/h 6 km/h 89 % 0 mm
17:58 -18.5 °C -19.4 °C 34235.8 hPa SE 9 km/h 9 km/h 89 % 0 mm
18:03 -18.6 °C -19.4 °C 34235.8 hPa ESE 9 km/h 9 km/h 89 % 0 mm
18:08 -18.6 °C -19.4 °C 34235.8 hPa East 6 km/h 6 km/h 89 % 0 mm
18:13 -18.7 °C -19.5 °C 34235.8 hPa SE 9 km/h 9 km/h 89 % 0 mm
18:18 -18.7 °C -19.6 °C 34235.8 hPa SE 15.6 km/h 15.6 km/h 89 % 0 mm
18:23 -18.7 °C -19.6 °C 34235.8 hPa SE 15.6 km/h 15.6 km/h 90 % 0 mm
18:28 -18.8 °C -19.6 °C 34222.3 hPa SE 15.6 km/h 15.6 km/h 90 % 0 mm
18:33 -18.8 °C -19.6 °C 34222.3 hPa SSE 17.9 km/h 17.9 km/h 90 % 0 mm
18:38 -18.8 °C -19.7 °C 34222.3 hPa East 15.6 km/h 15.6 km/h 90 % 0 mm
18:43 -18.9 °C -19.6 °C 34222.3 hPa ESE 15 km/h 15 km/h 91 % 0 mm
18:48 -18.9 °C -19.6 °C 34222.3 hPa ESE 15.6 km/h 15.6 km/h 91 % 0 mm
18:53 -18.9 °C -19.6 °C 34222.3 hPa ESE 15 km/h 15 km/h 91 % 0 mm
18:58 -18.9 °C -19.7 °C 34222.3 hPa ESE 15 km/h 15 km/h 91 % 0 mm
19:03 -19 °C -19.7 °C 34222.3 hPa SE 12.9 km/h 12.9 km/h 91 % 0 mm
19:08 -19 °C -19.7 °C 34222.3 hPa ESE 18.2 km/h 18.2 km/h 91 % 0 mm
19:13 -19 °C -19.7 °C 34222.3 hPa SE 23.8 km/h 23.8 km/h 91 % 0 mm
19:18 -19 °C -19.6 °C 34222.3 hPa SE 23.3 km/h 23.3 km/h 92 % 0 mm
19:23 -18.9 °C -19.6 °C 34222.3 hPa SE 20.9 km/h 20.9 km/h 92 % 0 mm
19:28 -18.9 °C -19.6 °C 34222.3 hPa SE 18.2 km/h 18.2 km/h 92 % 0 mm
19:33 -18.9 °C -19.6 °C 34222.3 hPa SE 17.9 km/h 17.9 km/h 92 % 0 mm
19:38 -18.9 °C -19.6 °C 34222.3 hPa SE 17.9 km/h 17.9 km/h 92 % 0 mm
19:43 -19 °C -19.7 °C 34222.3 hPa SSE 18.2 km/h 18.2 km/h 91 % 0 mm
19:48 -19 °C -19.7 °C 34222.3 hPa SE 20.8 km/h 20.8 km/h 91 % 0 mm
19:53 -19.1 °C -19.8 °C 34212.1 hPa SE 12.9 km/h 12.9 km/h 91 % 0 mm
19:58 -19.1 °C -19.8 °C 34222.3 hPa SE 12.9 km/h 12.9 km/h 91 % 0 mm
20:03 -19.1 °C -19.8 °C 34212.1 hPa ESE 15 km/h 15 km/h 91 % 0 mm
20:08 -19.1 °C -19.7 °C 34212.1 hPa ESE 17.9 km/h 17.9 km/h 92 % 0 mm
20:13 -19.1 °C -19.8 °C 34212.1 hPa ESE 17.9 km/h 17.9 km/h 92 % 0 mm
20:18 -19.2 °C -19.8 °C 34212.1 hPa ESE 15 km/h 15 km/h 92 % 0 mm
20:23 -19.2 °C -19.8 °C 34212.1 hPa SE 15 km/h 15 km/h 92 % 0 mm
20:28 -19.2 °C -19.8 °C 34198.6 hPa SE 15 km/h 15 km/h 92 % 0 mm
20:33 -19.2 °C -19.8 °C 34212.1 hPa SE 15.6 km/h 15.6 km/h 92 % 0 mm
20:38 -19.2 °C -19.8 °C 34198.6 hPa SE 17.9 km/h 17.9 km/h 92 % 0 mm
20:43 -19.2 °C -19.8 °C 34198.6 hPa ESE 23.8 km/h 23.8 km/h 92 % 0 mm
20:48 -19.2 °C -19.8 °C 34198.6 hPa SE 17.9 km/h 17.9 km/h 92 % 0 mm
20:53 -19.2 °C -19.8 °C 34198.6 hPa SE 17.9 km/h 17.9 km/h 92 % 0 mm
20:58 -19.2 °C -19.8 °C 34198.6 hPa ESE 23.8 km/h 23.8 km/h 92 % 0 mm
21:03 -19.2 °C -19.8 °C 34198.6 hPa SE 26.9 km/h 26.9 km/h 92 % 0 mm
21:08 -19.2 °C -19.8 °C 34198.6 hPa ESE 23.8 km/h 23.8 km/h 92 % 0 mm
21:13 -19.2 °C -19.8 °C 34188.4 hPa SE 20.9 km/h 20.9 km/h 92 % 0 mm
21:18 -19.3 °C -19.9 °C 34188.4 hPa SE 17.9 km/h 17.9 km/h 92 % 0 mm
21:23 -19.3 °C -19.9 °C 34188.4 hPa SE 23.8 km/h 23.8 km/h 92 % 0 mm
21:28 -19.3 °C -19.8 °C 34188.4 hPa ESE 18.2 km/h 18.2 km/h 93 % 0 mm
21:33 -19.2 °C -19.8 °C 34188.4 hPa ESE 23.3 km/h 23.3 km/h 93 % 0 mm
21:38 -19.2 °C -19.8 °C 34188.4 hPa ESE 29.8 km/h 29.8 km/h 93 % 0 mm
21:44 -19.2 °C -19.7 °C 34188.4 hPa ESE 23.8 km/h 23.8 km/h 93 % 0 mm
21:49 -19.1 °C -19.7 °C 34178.3 hPa ESE 23.8 km/h 23.8 km/h 93 % 0 mm
21:54 -19.1 °C -19.7 °C 34178.3 hPa SE 18.2 km/h 31.1 km/h 93 % 0 mm
21:59 -19.1 °C -19.6 °C 34178.3 hPa ESE 26.9 km/h 26.9 km/h 93 % 0 mm
22:04 -19.1 °C -19.6 °C 34178.3 hPa SE 23.8 km/h 23.8 km/h 93 % 0 mm
22:09 -19.1 °C -19.6 °C 34178.3 hPa SE 23.8 km/h 23.8 km/h 93 % 0 mm
22:14 -19.1 °C -19.6 °C 34178.3 hPa ESE 15 km/h 15 km/h 93 % 0 mm
22:19 -19.1 °C -19.6 °C 34164.7 hPa ESE 25.9 km/h 25.9 km/h 93 % 0 mm
22:24 -19.1 °C -19.7 °C 34164.7 hPa SE 25.9 km/h 25.9 km/h 93 % 0 mm
22:29 -19.1 °C -19.7 °C 34164.7 hPa ESE 26.9 km/h 26.9 km/h 93 % 0 mm
22:34 -19.1 °C -19.6 °C 34154.6 hPa ESE 23.3 km/h 23.3 km/h 93 % 0 mm
22:39 -19.1 °C -19.6 °C 34154.6 hPa SE 29.8 km/h 29.8 km/h 93 % 0 mm
22:44 -19.1 °C -19.6 °C 34154.6 hPa ESE 29.8 km/h 29.8 km/h 93 % 0 mm
22:49 -19.1 °C -19.6 °C 34144.4 hPa ESE 29.8 km/h 29.8 km/h 93 % 0 mm
22:54 -19.1 °C -19.6 °C 34144.4 hPa ESE 23.3 km/h 23.3 km/h 93 % 0 mm
22:59 -19 °C -19.6 °C 34144.4 hPa SE 29.8 km/h 29.8 km/h 93 % 0 mm
23:04 -19 °C -19.6 °C 34130.9 hPa ESE 26.9 km/h 26.9 km/h 93 % 0 mm
23:09 -18.9 °C -19.5 °C 34130.9 hPa SE 23.8 km/h 23.8 km/h 93 % 0 mm
23:14 -18.9 °C -19.5 °C 34130.9 hPa SE 29.8 km/h 29.8 km/h 93 % 0 mm
23:19 -18.9 °C -19.5 °C 34130.9 hPa SE 20.9 km/h 20.9 km/h 93 % 0 mm
23:24 -18.9 °C -19.5 °C 34130.9 hPa SE 20.9 km/h 20.9 km/h 93 % 0 mm
23:29 -18.9 °C -19.5 °C 34130.9 hPa ESE 29.8 km/h 29.8 km/h 93 % 0 mm
23:34 -18.9 °C -19.5 °C 34130.9 hPa ESE 18.2 km/h 18.2 km/h 93 % 0 mm
23:39 -18.9 °C -19.5 °C 34130.9 hPa ESE 17.9 km/h 17.9 km/h 93 % 0 mm
23:44 -18.9 °C -19.5 °C 34130.9 hPa SE 26.9 km/h 26.9 km/h 93 % 0 mm
23:49 -18.9 °C -19.5 °C 34120.7 hPa ESE 29.8 km/h 29.8 km/h 93 % 0 mm
23:54 -18.8 °C -19.3 °C 34120.7 hPa ESE 29.8 km/h 29.8 km/h 94 % 0 mm
23:59 -18.8 °C -19.3 °C 34120.7 hPa ESE 26.9 km/h 26.9 km/h 94 % 0 mm
Vejr3
tilladelse af Weather Underground - 4 mb

script udviklet af  Jim McMurry - jmcmurry@mwt.net tilpasset til dette template  Wim van der Kuil - Leuven-Template.eu

du finder også vores vejrinformationer på:

European Weather Network

Weather Underground

AWEKAS

WeatherlinkIP

Citizen Weather Observer Program (CWOP)

udstyr som vi anvender:

vejrstation
Davis VP2+

vejrprogram
Weather Display

vejrserver
Dell E6400

hjemmeside host
Webhosting.dk

Davis VP2+

Weather Display

Dell E6400

Webhosting.dk